sensor_id;sensor_type;location;lat;lon;timestamp;temperature;humidity
54558;DHT22;40452;50.080;20.040;2023-03-01T04:17:54;20.50;36.60
54558;DHT22;40452;50.080;20.040;2023-03-01T04:20:23;20.70;36.50
54558;DHT22;40452;50.080;20.040;2023-03-01T04:23:02;20.70;36.50
54558;DHT22;40452;50.080;20.040;2023-03-01T04:25:45;20.70;36.50
54558;DHT22;40452;50.080;20.040;2023-03-01T04:28:11;20.80;36.60
54558;DHT22;40452;50.080;20.040;2023-03-01T04:30:38;20.80;36.70
54558;DHT22;40452;50.080;20.040;2023-03-01T04:33:08;20.80;36.70
54558;DHT22;40452;50.080;20.040;2023-03-01T04:35:35;20.80;36.70
54558;DHT22;40452;50.080;20.040;2023-03-01T04:38:01;20.80;36.70
54558;DHT22;40452;50.080;20.040;2023-03-01T04:40:26;20.70;36.70
54558;DHT22;40452;50.080;20.040;2023-03-01T04:42:52;20.70;36.70
54558;DHT22;40452;50.080;20.040;2023-03-01T04:45:18;20.70;36.70
54558;DHT22;40452;50.080;20.040;2023-03-01T04:47:45;20.70;36.70
54558;DHT22;40452;50.080;20.040;2023-03-01T04:50:14;20.70;36.70
54558;DHT22;40452;50.080;20.040;2023-03-01T04:52:40;20.70;36.70
54558;DHT22;40452;50.080;20.040;2023-03-01T04:55:06;20.70;36.60
54558;DHT22;40452;50.080;20.040;2023-03-01T04:57:32;20.60;36.50
54558;DHT22;40452;50.080;20.040;2023-03-01T04:59:57;20.70;36.60
54558;DHT22;40452;50.080;20.040;2023-03-01T05:02:23;20.60;36.50
54558;DHT22;40452;50.080;20.040;2023-03-01T05:04:49;20.60;36.50
54558;DHT22;40452;50.080;20.040;2023-03-01T05:07:14;20.70;36.50
54558;DHT22;40452;50.080;20.040;2023-03-01T05:09:47;20.60;36.40
54558;DHT22;40452;50.080;20.040;2023-03-01T05:12:13;20.70;36.50
54558;DHT22;40452;50.080;20.040;2023-03-01T05:14:39;20.70;36.50
54558;DHT22;40452;50.080;20.040;2023-03-01T05:17:05;20.60;36.30
54558;DHT22;40452;50.080;20.040;2023-03-01T05:19:31;20.70;36.40
54558;DHT22;40452;50.080;20.040;2023-03-01T05:21:58;20.60;36.90
54558;DHT22;40452;50.080;20.040;2023-03-01T05:24:31;20.60;36.30
54558;DHT22;40452;50.080;20.040;2023-03-01T05:27:08;20.70;36.40
54558;DHT22;40452;50.080;20.040;2023-03-01T05:29:34;20.70;36.40
54558;DHT22;40452;50.080;20.040;2023-03-01T05:32:01;20.70;36.30
54558;DHT22;40452;50.080;20.040;2023-03-01T05:34:33;20.70;36.40
54558;DHT22;40452;50.080;20.040;2023-03-01T05:37:02;20.70;36.40
54558;DHT22;40452;50.080;20.040;2023-03-01T05:39:29;20.70;36.40
54558;DHT22;40452;50.080;20.040;2023-03-01T05:41:57;20.70;36.40
54558;DHT22;40452;50.080;20.040;2023-03-01T05:44:23;20.70;36.40
54558;DHT22;40452;50.080;20.040;2023-03-01T05:46:49;20.70;36.40
54558;DHT22;40452;50.080;20.040;2023-03-01T05:49:15;20.70;36.40
54558;DHT22;40452;50.080;20.040;2023-03-01T05:51:42;20.70;36.50
54558;DHT22;40452;50.080;20.040;2023-03-01T05:54:08;20.70;36.40
54558;DHT22;40452;50.080;20.040;2023-03-01T05:56:35;20.70;36.40
54558;DHT22;40452;50.080;20.040;2023-03-01T05:59:01;20.70;36.50
54558;DHT22;40452;50.080;20.040;2023-03-01T06:01:27;20.70;36.50
54558;DHT22;40452;50.080;20.040;2023-03-01T06:03:53;20.70;36.50
54558;DHT22;40452;50.080;20.040;2023-03-01T06:06:18;20.70;36.40
54558;DHT22;40452;50.080;20.040;2023-03-01T06:08:44;20.70;36.40
54558;DHT22;40452;50.080;20.040;2023-03-01T06:11:09;20.70;36.40
54558;DHT22;40452;50.080;20.040;2023-03-01T06:13:35;20.70;36.40
54558;DHT22;40452;50.080;20.040;2023-03-01T06:16:06;20.70;36.40
54558;DHT22;40452;50.080;20.040;2023-03-01T06:18:32;20.60;36.30
54558;DHT22;40452;50.080;20.040;2023-03-01T06:20:58;20.80;36.40
54558;DHT22;40452;50.080;20.040;2023-03-01T06:23:24;20.70;36.40
54558;DHT22;40452;50.080;20.040;2023-03-01T06:25:49;20.70;36.40
54558;DHT22;40452;50.080;20.040;2023-03-01T06:28:15;20.70;37.10
54558;DHT22;40452;50.080;20.040;2023-03-01T06:30:41;20.70;36.40
54558;DHT22;40452;50.080;20.040;2023-03-01T06:33:06;20.80;36.50
54558;DHT22;40452;50.080;20.040;2023-03-01T14:43:11;20.60;37.20
54558;DHT22;40452;50.080;20.040;2023-03-01T14:45:37;20.60;36.90
54558;DHT22;40452;50.080;20.040;2023-03-01T14:48:04;20.60;37.20
54558;DHT22;40452;50.080;20.040;2023-03-01T14:50:35;20.60;37.40
54558;DHT22;40452;50.080;20.040;2023-03-01T14:53:05;20.50;37.00
54558;DHT22;40452;50.080;20.040;2023-03-01T14:55:35;20.50;37.20
54558;DHT22;40452;50.080;20.040;2023-03-01T14:58:09;20.50;37.00
54558;DHT22;40452;50.080;20.040;2023-03-01T15:00:37;20.60;37.10
54558;DHT22;40452;50.080;20.040;2023-03-01T15:03:14;20.60;37.10
54558;DHT22;40452;50.080;20.040;2023-03-01T15:05:43;20.60;37.00
54558;DHT22;40452;50.080;20.040;2023-03-01T15:08:20;20.60;37.00
54558;DHT22;40452;50.080;20.040;2023-03-01T15:11:04;20.60;37.00
54558;DHT22;40452;50.080;20.040;2023-03-01T15:13:35;20.60;36.90
54558;DHT22;40452;50.080;20.040;2023-03-01T15:18:32;20.60;36.90
54558;DHT22;40452;50.080;20.040;2023-03-01T15:21:20;20.60;36.90
54558;DHT22;40452;50.080;20.040;2023-03-01T15:23:50;20.70;36.90
54558;DHT22;40452;50.080;20.040;2023-03-01T15:26:33;20.70;36.90
54558;DHT22;40452;50.080;20.040;2023-03-01T15:29:00;20.60;36.80
54558;DHT22;40452;50.080;20.040;2023-03-01T15:31:29;20.60;36.90
54558;DHT22;40452;50.080;20.040;2023-03-01T15:34:27;20.70;36.90
54558;DHT22;40452;50.080;20.040;2023-03-01T15:36:54;20.70;36.90
54558;DHT22;40452;50.080;20.040;2023-03-01T16:00:39;20.50;36.20
54558;DHT22;40452;50.080;20.040;2023-03-01T16:03:06;20.50;36.40
54558;DHT22;40452;50.080;20.040;2023-03-01T16:05:33;20.40;36.70
54558;DHT22;40452;50.080;20.040;2023-03-01T16:08:00;20.50;36.80
54558;DHT22;40452;50.080;20.040;2023-03-01T16:10:26;20.50;36.70
54558;DHT22;40452;50.080;20.040;2023-03-01T16:12:52;20.50;36.70
54558;DHT22;40452;50.080;20.040;2023-03-01T16:15:29;20.50;36.80
54558;DHT22;40452;50.080;20.040;2023-03-01T16:17:55;20.50;36.80
54558;DHT22;40452;50.080;20.040;2023-03-01T16:20:21;20.60;37.00
54558;DHT22;40452;50.080;20.040;2023-03-01T16:22:47;20.50;37.00
54558;DHT22;40452;50.080;20.040;2023-03-01T16:25:17;20.50;37.00
54558;DHT22;40452;50.080;20.040;2023-03-01T16:27:45;20.50;37.00
54558;DHT22;40452;50.080;20.040;2023-03-01T16:30:12;20.50;37.10
54558;DHT22;40452;50.080;20.040;2023-03-01T16:32:42;20.60;37.10
54558;DHT22;40452;50.080;20.040;2023-03-01T16:35:10;20.50;37.10
54558;DHT22;40452;50.080;20.040;2023-03-01T16:37:36;20.50;37.10
54558;DHT22;40452;50.080;20.040;2023-03-01T16:40:02;20.50;37.70
54558;DHT22;40452;50.080;20.040;2023-03-01T16:42:33;20.50;37.00
54558;DHT22;40452;50.080;20.040;2023-03-01T16:45:03;20.50;37.10
54558;DHT22;40452;50.080;20.040;2023-03-01T16:47:29;20.40;35.50
54558;DHT22;40452;50.080;20.040;2023-03-01T16:49:55;20.40;36.70
54558;DHT22;40452;50.080;20.040;2023-03-01T16:52:22;20.40;36.80
54558;DHT22;40452;50.080;20.040;2023-03-01T16:54:47;20.40;36.70
54558;DHT22;40452;50.080;20.040;2023-03-01T16:57:13;20.40;36.70
54558;DHT22;40452;50.080;20.040;2023-03-01T16:59:39;20.40;36.60
54558;DHT22;40452;50.080;20.040;2023-03-01T17:02:06;20.50;36.70
54558;DHT22;40452;50.080;20.040;2023-03-01T17:04:35;20.50;36.60
54558;DHT22;40452;50.080;20.040;2023-03-01T17:07:00;20.50;36.60
54558;DHT22;40452;50.080;20.040;2023-03-01T17:09:48;20.50;36.60
54558;DHT22;40452;50.080;20.040;2023-03-01T17:12:15;20.50;36.60
54558;DHT22;40452;50.080;20.040;2023-03-01T17:14:41;20.50;36.50
54558;DHT22;40452;50.080;20.040;2023-03-01T17:17:08;20.50;36.50
54558;DHT22;40452;50.080;20.040;2023-03-01T17:19:33;20.40;36.50
54558;DHT22;40452;50.080;20.040;2023-03-01T17:22:01;20.50;36.60
54558;DHT22;40452;50.080;20.040;2023-03-01T17:24:27;20.50;36.50
54558;DHT22;40452;50.080;20.040;2023-03-01T17:26:54;20.50;36.50
54558;DHT22;40452;50.080;20.040;2023-03-01T17:29:20;20.40;36.50
54558;DHT22;40452;50.080;20.040;2023-03-01T17:31:45;20.40;36.50
54558;DHT22;40452;50.080;20.040;2023-03-01T17:34:11;20.40;36.50
54558;DHT22;40452;50.080;20.040;2023-03-01T17:36:36;20.50;36.50
54558;DHT22;40452;50.080;20.040;2023-03-01T17:39:09;20.40;36.50
54558;DHT22;40452;50.080;20.040;2023-03-01T17:41:34;20.50;36.50
54558;DHT22;40452;50.080;20.040;2023-03-01T17:44:00;20.40;36.40
54558;DHT22;40452;50.080;20.040;2023-03-01T17:46:25;20.50;36.50
54558;DHT22;40452;50.080;20.040;2023-03-01T17:48:51;20.40;36.50
54558;DHT22;40452;50.080;20.040;2023-03-01T17:51:17;20.40;36.40
54558;DHT22;40452;50.080;20.040;2023-03-01T17:53:43;20.50;37.10
54558;DHT22;40452;50.080;20.040;2023-03-01T17:56:08;20.40;36.40
54558;DHT22;40452;50.080;20.040;2023-03-01T17:58:34;20.40;36.40
54558;DHT22;40452;50.080;20.040;2023-03-01T18:01:14;20.50;36.50
54558;DHT22;40452;50.080;20.040;2023-03-01T18:03:40;20.50;36.50
54558;DHT22;40452;50.080;20.040;2023-03-01T18:06:17;20.50;36.50
54558;DHT22;40452;50.080;20.040;2023-03-01T18:08:44;20.50;36.50
54558;DHT22;40452;50.080;20.040;2023-03-01T18:11:10;20.60;36.60
54558;DHT22;40452;50.080;20.040;2023-03-01T18:13:36;20.50;36.50
54558;DHT22;40452;50.080;20.040;2023-03-01T18:16:05;20.50;36.60
54558;DHT22;40452;50.080;20.040;2023-03-01T18:18:31;20.50;36.60
54558;DHT22;40452;50.080;20.040;2023-03-01T18:20:58;20.50;36.60
54558;DHT22;40452;50.080;20.040;2023-03-01T18:23:23;20.50;36.70
54558;DHT22;40452;50.080;20.040;2023-03-01T18:25:49;20.50;36.70
54558;DHT22;40452;50.080;20.040;2023-03-01T18:28:15;20.50;36.70
54558;DHT22;40452;50.080;20.040;2023-03-01T18:30:41;20.50;36.80
54558;DHT22;40452;50.080;20.040;2023-03-01T18:33:07;20.50;36.90
54558;DHT22;40452;50.080;20.040;2023-03-01T18:35:36;20.50;36.90
54558;DHT22;40452;50.080;20.040;2023-03-01T18:38:01;20.50;37.00
54558;DHT22;40452;50.080;20.040;2023-03-01T18:40:28;20.50;37.00
54558;DHT22;40452;50.080;20.040;2023-03-01T18:42:55;20.60;37.10
54558;DHT22;40452;50.080;20.040;2023-03-01T18:45:20;20.50;37.00
54558;DHT22;40452;50.080;20.040;2023-03-01T18:47:46;20.50;37.10
54558;DHT22;40452;50.080;20.040;2023-03-01T18:50:17;20.60;37.10
54558;DHT22;40452;50.080;20.040;2023-03-01T18:52:42;20.60;37.20
54558;DHT22;40452;50.080;20.040;2023-03-01T18:55:08;20.60;37.20
54558;DHT22;40452;50.080;20.040;2023-03-01T18:57:34;20.50;37.30
54558;DHT22;40452;50.080;20.040;2023-03-01T18:59:59;20.50;37.20
54558;DHT22;40452;50.080;20.040;2023-03-01T19:02:25;20.50;37.30
54558;DHT22;40452;50.080;20.040;2023-03-01T19:04:50;20.50;37.30
54558;DHT22;40452;50.080;20.040;2023-03-01T19:07:16;20.50;37.30
54558;DHT22;40452;50.080;20.040;2023-03-01T19:09:42;20.50;37.20
54558;DHT22;40452;50.080;20.040;2023-03-01T19:12:07;20.50;37.20
54558;DHT22;40452;50.080;20.040;2023-03-01T19:14:33;20.50;37.20
54558;DHT22;40452;50.080;20.040;2023-03-01T19:16:59;20.50;37.20
54558;DHT22;40452;50.080;20.040;2023-03-01T19:19:24;20.50;37.20
54558;DHT22;40452;50.080;20.040;2023-03-01T19:21:50;20.50;37.20
54558;DHT22;40452;50.080;20.040;2023-03-01T19:24:15;20.50;37.20
54558;DHT22;40452;50.080;20.040;2023-03-01T19:26:41;20.60;37.20
54558;DHT22;40452;50.080;20.040;2023-03-01T19:29:07;20.50;37.20
54558;DHT22;40452;50.080;20.040;2023-03-01T19:31:34;20.50;37.20
54558;DHT22;40452;50.080;20.040;2023-03-01T19:34:00;20.50;37.30
54558;DHT22;40452;50.080;20.040;2023-03-01T19:36:29;20.60;37.30
54558;DHT22;40452;50.080;20.040;2023-03-01T19:39:01;20.50;37.30
54558;DHT22;40452;50.080;20.040;2023-03-01T19:41:27;20.60;37.40
54558;DHT22;40452;50.080;20.040;2023-03-01T19:43:53;20.50;37.40
54558;DHT22;40452;50.080;20.040;2023-03-01T19:46:19;20.60;37.50
54558;DHT22;40452;50.080;20.040;2023-03-01T19:48:45;20.60;37.50
54558;DHT22;40452;50.080;20.040;2023-03-01T19:51:11;20.60;37.50
54558;DHT22;40452;50.080;20.040;2023-03-01T19:53:38;20.60;37.50
54558;DHT22;40452;50.080;20.040;2023-03-01T19:56:04;20.60;37.50
54558;DHT22;40452;50.080;20.040;2023-03-01T19:58:30;20.60;37.50
54558;DHT22;40452;50.080;20.040;2023-03-01T20:00:57;20.60;37.50
54558;DHT22;40452;50.080;20.040;2023-03-01T20:03:25;20.60;37.60
